createdAt,value
2023-02-27T00:01:06.162Z,1.80
2023-02-27T00:03:36.833Z,1.60
2023-02-27T00:06:06.993Z,1.67
2023-02-27T00:08:35.293Z,1.90
2023-02-27T00:11:03.358Z,1.83
2023-02-27T00:13:32.173Z,1.80
2023-02-27T00:16:02.368Z,1.80
2023-02-27T00:18:32.700Z,1.90
2023-02-27T00:21:01.744Z,1.90
2023-02-27T00:23:32.993Z,1.60
2023-02-27T00:26:02.718Z,1.50
2023-02-27T00:28:32.145Z,1.60
2023-02-27T00:33:57.942Z,1.47
2023-02-27T00:36:31.137Z,1.50
2023-02-27T00:39:01.570Z,1.50
2023-02-27T00:41:29.879Z,1.70
2023-02-27T00:43:58.466Z,1.50
2023-02-27T00:46:26.521Z,1.63
2023-02-27T00:48:56.662Z,1.60
2023-02-27T00:51:28.204Z,1.60
2023-02-27T00:53:56.808Z,1.43
2023-02-27T00:56:27.758Z,1.70
2023-02-27T00:58:56.098Z,1.70
2023-02-27T01:01:26.425Z,1.47
2023-02-27T01:03:55.211Z,1.50
2023-02-27T01:06:27.357Z,1.80
2023-02-27T01:09:01.896Z,1.60
2023-02-27T01:11:33.861Z,1.50
2023-02-27T01:14:02.114Z,1.43
2023-02-27T01:16:32.543Z,1.93
2023-02-27T01:19:01.356Z,1.43
2023-02-27T01:21:30.675Z,1.33
2023-02-27T01:23:59.268Z,1.60
2023-02-27T01:26:29.118Z,1.63
2023-02-27T01:28:59.015Z,1.70
2023-02-27T01:31:38.202Z,1.40
2023-02-27T01:34:07.304Z,1.50
2023-02-27T01:36:38.930Z,1.30
2023-02-27T01:39:06.904Z,1.63
2023-02-27T01:41:37.743Z,1.63
2023-02-27T01:44:12.925Z,1.53
2023-02-27T01:46:45.194Z,1.33
2023-02-27T01:49:27.578Z,1.87
2023-02-27T01:52:04.063Z,1.53
2023-02-27T01:54:44.915Z,1.53
2023-02-27T01:57:13.320Z,1.47
2023-02-27T01:59:44.604Z,1.80
2023-02-27T02:02:19.210Z,1.63
2023-02-27T02:04:48.465Z,1.60
2023-02-27T02:07:22.490Z,1.63
2023-02-27T02:09:54.406Z,1.67
2023-02-27T02:12:31.872Z,1.70
2023-02-27T02:15:12.273Z,1.67
2023-02-27T02:17:54.078Z,1.90
2023-02-27T02:21:03.017Z,1.57
2023-02-27T02:23:58.078Z,1.40
2023-02-27T02:26:39.305Z,1.70
2023-02-27T02:29:44.459Z,1.60
2023-02-27T02:36:07.202Z,1.90
2023-02-27T02:38:54.590Z,1.60
2023-02-27T02:41:34.569Z,1.50
2023-02-27T02:44:08.958Z,1.43
2023-02-27T02:46:48.254Z,1.50
2023-02-27T02:49:27.720Z,1.40
2023-02-27T02:52:04.397Z,1.50
2023-02-27T02:54:41.274Z,1.40
2023-02-27T02:57:17.132Z,1.50
2023-02-27T02:59:52.295Z,1.80
2023-02-27T03:02:24.596Z,1.67
2023-02-27T03:04:57.479Z,1.20
2023-02-27T03:07:36.395Z,1.40
2023-02-27T03:10:13.642Z,1.67
2023-02-27T03:12:48.132Z,1.40
2023-02-27T03:15:21.463Z,1.33
2023-02-27T03:17:55.578Z,1.73
2023-02-27T03:20:39.156Z,1.60
2023-02-27T03:23:16.229Z,2.00
2023-02-27T03:25:54.557Z,1.13
2023-02-27T03:31:32.780Z,1.50
2023-02-27T03:34:10.070Z,1.80
2023-02-27T03:36:48.698Z,1.47
2023-02-27T03:39:40.190Z,1.50
2023-02-27T03:42:24.907Z,1.17
2023-02-27T03:45:02.658Z,1.43
2023-02-27T03:47:36.269Z,1.77
2023-02-27T03:50:05.763Z,1.50
2023-02-27T03:52:37.536Z,1.57
2023-02-27T03:55:13.069Z,1.37
2023-02-27T03:57:44.665Z,1.50
2023-02-27T04:00:19.521Z,1.43
2023-02-27T04:02:50.729Z,1.40
2023-02-27T04:05:21.821Z,1.50
2023-02-27T04:08:03.249Z,1.30
2023-02-27T04:10:57.904Z,1.57
2023-02-27T04:16:53.390Z,1.60
2023-02-27T04:19:49.707Z,1.60
2023-02-27T04:22:32.753Z,1.50
2023-02-27T04:25:25.319Z,1.30
2023-02-27T04:28:16.054Z,1.30
2023-02-27T04:30:56.934Z,1.50
2023-02-27T04:33:39.751Z,1.27
2023-02-27T04:36:14.368Z,1.20
2023-02-27T04:38:49.821Z,1.50
2023-02-27T04:41:24.937Z,1.60
2023-02-27T04:43:55.031Z,1.60
2023-02-27T04:46:30.444Z,1.90
2023-02-27T04:49:02.051Z,1.70
2023-02-27T04:51:36.971Z,1.87
2023-02-27T04:54:12.348Z,1.80
2023-02-27T04:56:45.895Z,1.80
2023-02-27T04:59:19.440Z,1.60
2023-02-27T05:01:59.276Z,1.80
2023-02-27T05:04:31.335Z,1.40
2023-02-27T05:07:03.535Z,1.90
2023-02-27T05:09:44.776Z,1.90
2023-02-27T05:12:18.437Z,1.70
2023-02-27T05:14:52.400Z,2.10
2023-02-27T05:17:29.124Z,1.93
2023-02-27T05:19:59.586Z,1.60
2023-02-27T05:22:40.941Z,1.83
2023-02-27T05:25:16.922Z,1.70
2023-02-27T05:27:53.215Z,1.63
2023-02-27T05:30:27.597Z,1.70
2023-02-27T05:33:00.812Z,1.47
2023-02-27T05:35:36.079Z,1.40
2023-02-27T05:38:16.528Z,1.90
2023-02-27T05:40:50.456Z,2.00
2023-02-27T05:43:22.446Z,1.70
2023-02-27T05:45:57.057Z,1.80
2023-02-27T05:48:32.123Z,2.90
2023-02-27T05:51:01.544Z,2.50
2023-02-27T05:53:35.478Z,2.07
2023-02-27T05:56:08.078Z,2.07
2023-02-27T05:58:41.425Z,1.93
2023-02-27T06:01:12.037Z,1.80
2023-02-27T06:03:46.786Z,1.70
2023-02-27T06:06:18.459Z,2.10
2023-02-27T06:08:47.538Z,1.47
2023-02-27T06:11:18.185Z,1.40
2023-02-27T06:13:46.696Z,2.07
2023-02-27T06:16:17.302Z,1.90
2023-02-27T06:18:48.290Z,2.47
2023-02-27T06:21:16.640Z,1.80
2023-02-27T06:23:45.463Z,2.00
2023-02-27T06:26:14.442Z,1.50
2023-02-27T06:28:44.400Z,2.20
2023-02-27T06:31:13.415Z,2.03
2023-02-27T06:33:43.866Z,2.03
2023-02-27T06:36:24.144Z,1.80
2023-02-27T06:38:53.944Z,1.77
2023-02-27T06:41:24.033Z,2.10
2023-02-27T06:43:52.206Z,2.07
2023-02-27T06:46:21.338Z,2.30
2023-02-27T06:48:49.951Z,2.13
2023-02-27T06:51:23.349Z,2.30
2023-02-27T06:53:54.546Z,2.53
2023-02-27T06:56:24.125Z,2.20
2023-02-27T06:58:52.605Z,2.50
2023-02-27T07:01:20.924Z,1.97
2023-02-27T07:03:49.940Z,2.10
2023-02-27T07:07:32.372Z,2.10
2023-02-27T07:09:15.033Z,2.10
2023-02-27T07:11:43.476Z,2.23
2023-02-27T07:14:13.053Z,3.07
2023-02-27T07:16:43.217Z,2.83
2023-02-27T07:19:11.647Z,2.70
2023-02-27T07:21:42.392Z,1.47
2023-02-27T07:24:10.468Z,2.37
2023-02-27T07:26:39.091Z,2.10
2023-02-27T07:29:09.084Z,1.83
2023-02-27T07:31:39.694Z,1.70
2023-02-27T07:34:09.657Z,2.80
2023-02-27T07:36:41.313Z,1.90
2023-02-27T07:39:12.569Z,2.53
2023-02-27T07:41:41.503Z,2.10
2023-02-27T07:44:32.790Z,1.97
2023-02-27T07:47:06.843Z,2.20
2023-02-27T07:49:40.558Z,1.80
2023-02-27T07:52:11.228Z,1.97
2023-02-27T07:54:41.045Z,1.47
2023-02-27T07:57:08.973Z,1.70
2023-02-27T07:59:37.452Z,2.70
2023-02-27T08:02:08.065Z,2.70
2023-02-27T08:04:37.546Z,2.47
2023-02-27T08:07:06.345Z,2.10
2023-02-27T08:09:40.364Z,2.73
2023-02-27T08:12:10.337Z,3.27
2023-02-27T08:14:39.848Z,1.90
2023-02-27T08:17:09.988Z,2.10
2023-02-27T08:19:41.153Z,2.90
2023-02-27T08:22:09.390Z,2.40
2023-02-27T08:24:40.569Z,2.07
2023-02-27T08:27:09.160Z,2.33
2023-02-27T08:29:45.577Z,2.00
2023-02-27T08:32:15.905Z,2.30
2023-02-27T08:34:48.201Z,2.07
2023-02-27T08:37:20.672Z,2.77
2023-02-27T08:39:50.656Z,2.53
2023-02-27T08:42:19.763Z,2.53
2023-02-27T08:44:50.743Z,2.57
2023-02-27T08:47:22.607Z,5.00
2023-02-27T08:49:51.401Z,3.90
2023-02-27T08:52:20.660Z,2.40
2023-02-27T08:54:53.237Z,2.10
2023-02-27T08:57:24.114Z,2.10
2023-02-27T08:59:52.371Z,2.40
2023-02-27T09:02:23.573Z,2.17
2023-02-27T09:04:55.308Z,2.33
2023-02-27T09:07:23.296Z,1.90
2023-02-27T09:09:57.798Z,1.90
2023-02-27T09:12:26.038Z,2.50
2023-02-27T09:14:56.048Z,1.83
2023-02-27T09:17:25.864Z,1.90
2023-02-27T09:19:57.570Z,2.10
2023-02-27T09:22:26.420Z,1.77
2023-02-27T09:24:57.584Z,2.00
2023-02-27T09:27:26.789Z,1.90
2023-02-27T09:29:57.041Z,1.97
2023-02-27T09:32:27.627Z,1.90
2023-02-27T09:34:58.072Z,1.90
2023-02-27T09:37:28.499Z,2.13
2023-02-27T09:39:59.177Z,1.60
2023-02-27T09:42:36.732Z,1.83
2023-02-27T09:45:08.620Z,1.50
2023-02-27T09:47:41.648Z,1.70
2023-02-27T09:50:35.334Z,1.73
2023-02-27T09:53:03.957Z,1.90
2023-02-27T09:55:40.263Z,1.87
2023-02-27T09:58:26.451Z,1.83
2023-02-27T10:01:08.261Z,1.90
2023-02-27T10:03:55.447Z,2.30
2023-02-27T10:06:28.353Z,1.53
2023-02-27T10:09:07.348Z,2.20
2023-02-27T10:11:52.022Z,1.90
2023-02-27T10:14:33.762Z,1.70
2023-02-27T10:17:06.440Z,2.20
2023-02-27T10:19:38.872Z,1.87
2023-02-27T10:22:14.880Z,2.10
2023-02-27T10:24:53.009Z,2.47
2023-02-27T10:27:24.995Z,1.70
2023-02-27T10:29:58.118Z,1.80
2023-02-27T10:32:33.784Z,1.77
2023-02-27T10:35:11.308Z,1.80
2023-02-27T10:37:50.595Z,1.80
2023-02-27T10:40:20.777Z,1.90
2023-02-27T10:42:52.720Z,2.17
2023-02-27T10:45:21.216Z,2.50
2023-02-27T10:47:52.243Z,1.60
2023-02-27T10:50:30.763Z,1.70
2023-02-27T10:53:02.681Z,1.80
2023-02-27T10:55:33.203Z,1.77
2023-02-27T10:58:05.539Z,1.50
2023-02-27T11:00:50.089Z,1.80
2023-02-27T11:03:22.544Z,1.40
2023-02-27T11:06:00.903Z,2.00
2023-02-27T11:08:33.855Z,1.53
2023-02-27T11:11:04.893Z,2.07
2023-02-27T11:13:45.859Z,1.40
2023-02-27T11:16:19.792Z,1.73
2023-02-27T11:18:50.413Z,1.40
2023-02-27T11:21:32.498Z,1.63
2023-02-27T11:24:06.511Z,1.57
2023-02-27T11:26:37.481Z,1.50
2023-02-27T11:29:09.714Z,1.60
2023-02-27T11:31:38.937Z,1.80
2023-02-27T11:34:10.144Z,1.73
2023-02-27T11:36:50.969Z,1.60
2023-02-27T11:39:30.884Z,1.60
2023-02-27T11:42:07.020Z,1.80
2023-02-27T11:44:57.441Z,1.40
2023-02-27T11:47:31.612Z,1.30
2023-02-27T11:50:36.560Z,1.20
2023-02-27T11:53:20.122Z,1.20
2023-02-27T11:55:50.468Z,1.40
2023-02-27T11:58:23.017Z,1.10
2023-02-27T12:00:59.266Z,1.30
2023-02-27T12:03:41.377Z,1.20
2023-02-27T12:06:21.017Z,1.30
2023-02-27T12:08:54.558Z,1.10
2023-02-27T12:11:29.877Z,1.00
2023-02-27T12:14:20.536Z,1.17
2023-02-27T12:17:06.116Z,1.37
2023-02-27T12:19:41.445Z,1.60
2023-02-27T12:22:19.200Z,1.00
2023-02-27T12:24:54.158Z,1.33
2023-02-27T12:27:27.360Z,0.90
2023-02-27T12:30:04.462Z,1.13
2023-02-27T12:32:40.559Z,1.10
2023-02-27T12:35:22.837Z,1.00
2023-02-27T12:37:52.072Z,0.90
2023-02-27T12:43:28.339Z,0.90
2023-02-27T12:46:14.425Z,0.90
2023-02-27T12:54:37.846Z,0.90
2023-02-27T12:57:21.250Z,1.60
2023-02-27T12:59:59.205Z,1.00
2023-02-27T13:02:47.394Z,0.70
2023-02-27T13:05:44.651Z,0.80
2023-02-27T13:08:27.705Z,0.80
2023-02-27T13:11:06.848Z,1.00
2023-02-27T13:13:40.714Z,0.83
2023-02-27T13:16:18.012Z,0.80
2023-02-27T13:18:51.113Z,0.70
2023-02-27T13:21:37.025Z,1.30
2023-02-27T13:24:19.417Z,1.07
2023-02-27T13:26:57.063Z,1.93
2023-02-27T13:29:34.869Z,2.43
2023-02-27T13:32:27.293Z,1.27
2023-02-27T13:35:13.756Z,1.23
2023-02-27T13:38:03.585Z,1.00
2023-02-27T13:40:38.997Z,1.00
2023-02-27T13:43:40.515Z,1.23
2023-02-27T13:46:26.806Z,1.33
2023-02-27T13:49:29.129Z,1.97
2023-02-27T13:52:00.476Z,1.67
2023-02-27T13:54:36.759Z,1.90
2023-02-27T13:57:29.212Z,1.83
2023-02-27T14:00:08.868Z,1.47
2023-02-27T14:02:58.368Z,0.93
2023-02-27T14:05:39.353Z,1.60
2023-02-27T14:08:15.670Z,1.47
2023-02-27T14:10:58.585Z,1.77
2023-02-27T14:13:59.176Z,2.43
2023-02-27T14:17:06.450Z,0.93
2023-02-27T14:20:02.205Z,1.80
2023-02-27T14:23:03.771Z,3.40
2023-02-27T14:25:39.502Z,0.90
2023-02-27T14:28:19.110Z,1.33
2023-02-27T14:31:01.160Z,1.47
2023-02-27T14:33:40.749Z,0.80
2023-02-27T14:36:18.676Z,0.83
2023-02-27T14:38:47.575Z,2.70
2023-02-27T14:41:32.207Z,1.13
2023-02-27T14:44:01.107Z,1.60
2023-02-27T14:46:37.602Z,1.00
2023-02-27T14:49:22.182Z,3.53
2023-02-27T14:51:52.177Z,2.27
2023-02-27T14:54:23.720Z,1.10
2023-02-27T14:56:56.470Z,2.23
2023-02-27T14:59:29.317Z,0.90
2023-02-27T15:02:02.827Z,0.90
2023-02-27T15:04:34.531Z,0.87
2023-02-27T15:07:04.258Z,0.90
2023-02-27T15:09:43.074Z,0.83
2023-02-27T15:12:18.613Z,0.73
2023-02-27T15:14:58.674Z,0.80
2023-02-27T15:17:39.575Z,0.80
2023-02-27T15:20:30.771Z,0.60
2023-02-27T15:23:00.245Z,0.90
2023-02-27T15:25:33.996Z,0.80
2023-02-27T15:28:07.893Z,0.80
2023-02-27T15:30:39.328Z,0.70
2023-02-27T15:33:16.437Z,0.90
2023-02-27T15:35:47.631Z,0.80
2023-02-27T15:38:26.662Z,1.10
2023-02-27T15:40:57.229Z,0.90
2023-02-27T15:43:31.836Z,0.90
2023-02-27T15:46:00.525Z,1.10
2023-02-27T15:48:31.157Z,1.00
2023-02-27T15:51:17.400Z,0.90
2023-02-27T15:53:53.802Z,1.10
2023-02-27T15:56:27.596Z,0.90
2023-02-27T15:59:00.955Z,1.00
2023-02-27T16:01:32.877Z,1.10
2023-02-27T16:04:03.976Z,1.07
2023-02-27T16:06:45.032Z,1.00
2023-02-27T16:09:24.281Z,1.37
2023-02-27T16:12:22.744Z,1.10
2023-02-27T16:14:54.233Z,1.10
2023-02-27T16:17:29.623Z,1.00
2023-02-27T16:20:04.049Z,1.17
2023-02-27T16:22:42.398Z,1.00
2023-02-27T16:25:15.567Z,1.03
2023-02-27T16:27:53.039Z,1.20
2023-02-27T16:30:23.128Z,1.00
2023-02-27T16:33:01.116Z,1.20
2023-02-27T16:35:39.368Z,0.83
2023-02-27T16:38:15.048Z,1.00
2023-02-27T16:40:46.020Z,1.20
2023-02-27T16:43:19.609Z,1.30
2023-02-27T16:45:52.811Z,0.93
2023-02-27T16:48:21.497Z,1.10
2023-02-27T16:50:53.730Z,1.00
2023-02-27T16:53:26.156Z,1.00
2023-02-27T16:56:09.672Z,1.00
2023-02-27T16:58:41.313Z,1.03
2023-02-27T17:01:09.586Z,0.87
2023-02-27T17:03:41.784Z,0.80
2023-02-27T17:06:14.886Z,0.80
2023-02-27T17:08:45.563Z,0.90
2023-02-27T17:11:18.372Z,1.00
2023-02-27T17:13:46.569Z,1.10
2023-02-27T17:16:17.336Z,0.80
2023-02-27T17:18:46.091Z,0.80
2023-02-27T17:21:22.018Z,1.40
2023-02-27T17:23:53.488Z,0.90
2023-02-27T17:26:23.766Z,1.30
2023-02-27T17:28:58.209Z,1.10
2023-02-27T17:31:29.204Z,1.00
2023-02-27T17:34:00.139Z,1.30
2023-02-27T17:36:29.940Z,1.20
2023-02-27T17:39:04.055Z,1.23
2023-02-27T17:41:36.470Z,1.20
2023-02-27T17:44:06.937Z,1.60
2023-02-27T17:46:42.834Z,1.30
2023-02-27T17:49:13.546Z,1.30
2023-02-27T17:51:42.252Z,1.40
2023-02-27T17:54:12.470Z,1.57
2023-02-27T17:56:44.413Z,1.40
2023-02-27T17:59:13.993Z,1.50
2023-02-27T18:01:44.301Z,1.37
2023-02-27T18:04:12.826Z,1.20
2023-02-27T18:06:42.160Z,1.37
2023-02-27T18:09:13.223Z,1.70
2023-02-27T18:11:42.708Z,1.73
2023-02-27T18:14:10.969Z,1.40
2023-02-27T18:16:42.178Z,1.67
2023-02-27T18:19:11.299Z,1.30
2023-02-27T18:21:39.775Z,1.40
2023-02-27T18:27:53.476Z,1.30
2023-02-27T18:30:22.178Z,1.40
2023-02-27T18:33:00.935Z,1.30
2023-02-27T18:35:34.164Z,1.30
2023-02-27T18:38:04.779Z,1.50
2023-02-27T18:40:33.382Z,1.57
2023-02-27T18:43:09.236Z,1.27
2023-02-27T18:45:40.629Z,1.37
2023-02-27T18:48:13.022Z,1.20
2023-02-27T18:50:42.129Z,1.30
2023-02-27T18:53:11.385Z,1.30
2023-02-27T18:55:47.230Z,1.67
2023-02-27T18:58:18.062Z,1.37
2023-02-27T19:00:50.065Z,1.30
2023-02-27T19:03:19.564Z,1.17
2023-02-27T19:05:48.490Z,1.40
2023-02-27T19:08:20.229Z,1.27
2023-02-27T19:10:55.360Z,1.20
2023-02-27T19:13:28.156Z,1.60
2023-02-27T19:15:58.760Z,1.23
2023-02-27T19:18:28.507Z,1.60
2023-02-27T19:21:06.747Z,1.67
2023-02-27T19:23:36.341Z,1.60
2023-02-27T19:26:04.554Z,1.50
2023-02-27T19:28:36.108Z,1.70
2023-02-27T19:31:11.732Z,1.63
2023-02-27T19:33:41.150Z,1.70
2023-02-27T19:36:20.124Z,2.13
2023-02-27T19:38:48.409Z,1.73
2023-02-27T19:41:17.797Z,2.63
2023-02-27T19:43:49.954Z,1.90
2023-02-27T19:46:20.744Z,2.10
2023-02-27T19:48:49.479Z,1.73
2023-02-27T19:51:20.440Z,1.90
2023-02-27T19:54:13.400Z,1.80
2023-02-27T19:56:43.286Z,1.67
2023-02-27T19:59:15.150Z,1.80
2023-02-27T20:01:43.407Z,1.90
2023-02-27T20:04:14.822Z,1.77
2023-02-27T20:06:44.833Z,1.90
2023-02-27T20:09:16.672Z,2.00
2023-02-27T20:11:46.460Z,2.30
2023-02-27T20:14:20.393Z,2.07
2023-02-27T20:16:57.198Z,2.23
2023-02-27T20:19:26.821Z,2.50
2023-02-27T20:21:57.268Z,2.13
2023-02-27T20:24:27.313Z,2.30
2023-02-27T20:26:59.145Z,2.40
2023-02-27T20:29:29.168Z,2.20
2023-02-27T20:32:01.206Z,2.30
2023-02-27T20:34:31.036Z,2.13
2023-02-27T20:37:00.493Z,2.20
2023-02-27T20:39:31.474Z,2.30
2023-02-27T20:42:03.683Z,2.40
2023-02-27T20:44:33.082Z,2.27
2023-02-27T20:47:04.984Z,2.20
2023-02-27T20:49:35.608Z,2.63
2023-02-27T20:52:04.582Z,2.53
2023-02-27T20:57:19.602Z,2.93
2023-02-27T20:59:51.103Z,2.33
2023-02-27T21:02:21.930Z,2.77
2023-02-27T21:04:53.984Z,2.70
2023-02-27T21:07:22.931Z,2.50
2023-02-27T21:09:55.583Z,2.80
2023-02-27T21:12:23.625Z,2.50
2023-02-27T21:14:54.213Z,2.60
2023-02-27T21:17:23.388Z,2.53
2023-02-27T21:19:52.100Z,2.60
2023-02-27T21:22:23.850Z,2.43
2023-02-27T21:24:53.714Z,2.83
2023-02-27T21:27:26.339Z,2.70
2023-02-27T21:29:56.604Z,2.20
2023-02-27T21:32:25.023Z,2.70
2023-02-27T21:34:53.827Z,2.87
2023-02-27T21:37:22.848Z,2.77
2023-02-27T21:39:55.085Z,2.57
2023-02-27T21:42:25.298Z,2.80
2023-02-27T21:44:58.392Z,2.37
2023-02-27T21:47:29.682Z,2.40
2023-02-27T21:49:59.595Z,2.33
2023-02-27T21:52:28.410Z,2.00
2023-02-27T21:54:59.594Z,2.40
2023-02-27T21:57:31.732Z,2.13
2023-02-27T22:00:02.172Z,2.20
2023-02-27T22:02:30.609Z,2.10
2023-02-27T22:05:00.846Z,2.10
2023-02-27T22:07:31.060Z,2.20
2023-02-27T22:10:00.011Z,2.10
2023-02-27T22:12:28.065Z,2.10
2023-02-27T22:14:56.650Z,2.30
2023-02-27T22:17:26.469Z,2.23
2023-02-27T22:19:58.753Z,1.70
2023-02-27T22:22:28.066Z,2.60
2023-02-27T22:24:57.916Z,2.03
2023-02-27T22:27:25.899Z,2.20
2023-02-27T22:29:54.618Z,2.03
2023-02-27T22:32:29.303Z,2.30
2023-02-27T22:34:59.710Z,2.70
2023-02-27T22:37:29.197Z,2.10
2023-02-27T22:39:57.839Z,2.10
2023-02-27T22:42:26.921Z,2.20
2023-02-27T22:45:04.463Z,2.20
2023-02-27T22:47:36.971Z,2.60
2023-02-27T22:50:06.812Z,2.30
2023-02-27T22:52:41.182Z,2.23
2023-02-27T22:55:10.787Z,2.13
2023-02-27T22:57:38.623Z,2.53
2023-02-27T23:00:12.732Z,2.30
2023-02-27T23:02:44.668Z,2.50
2023-02-27T23:05:12.826Z,2.10
2023-02-27T23:07:44.653Z,2.47
2023-02-27T23:10:15.469Z,2.03
2023-02-27T23:12:43.802Z,2.37
2023-02-27T23:15:12.615Z,2.20
2023-02-27T23:17:56.637Z,2.77
2023-02-27T23:20:29.707Z,2.23
2023-02-27T23:22:59.374Z,2.30
2023-02-27T23:25:27.933Z,2.97
2023-02-27T23:27:56.642Z,2.40
2023-02-27T23:30:28.156Z,2.60
2023-02-27T23:33:00.882Z,3.30
2023-02-27T23:35:33.099Z,2.63
2023-02-27T23:38:04.330Z,2.37
2023-02-27T23:40:34.981Z,3.47
2023-02-27T23:43:04.456Z,2.73
2023-02-27T23:45:35.239Z,3.00
2023-02-27T23:48:08.814Z,3.00
2023-02-27T23:50:39.136Z,2.77
2023-02-27T23:53:10.206Z,2.47
2023-02-27T23:55:40.502Z,2.90
2023-02-27T23:58:11.896Z,3.00
